Time;durP1;ratioP1;P1;durP2;ratioP2;P2;SDS_P1;SDS_P2;PMS_P1;PMS_P2;Temp;Humidity;BMP_temperature;BMP_pressure;BME280_temperature;BME280_humidity;BME280_pressure;Samples;Min_cycle;Max_cycle;Signal;HPM_P1;HPM_P2
2023/12/25 00:00:12;;;;;;;14.43;3.17;;;12.80;99.90;;;;;;5074486;28;20028;-69
2023/12/25 00:02:38;;;;;;;13.88;2.70;;;12.80;99.90;;;;;;5085762;28;20040;-68
2023/12/25 00:05:03;;;;;;;16.67;3.75;;;12.80;99.90;;;;;;5091594;28;20040;-68
2023/12/25 00:07:30;;;;;;;12.82;3.88;;;12.80;99.90;;;;;;5086799;28;20454;-69
2023/12/25 00:09:56;;;;;;;12.77;2.63;;;12.80;99.90;;;;;;5067663;28;20044;-68
2023/12/25 00:12:23;;;;;;;18.33;3.30;;;12.80;99.90;;;;;;5091194;28;20111;-68
2023/12/25 00:14:48;;;;;;;12.07;3.08;;;12.80;99.90;;;;;;5091985;28;20093;-68
2023/12/25 00:17:15;;;;;;;14.98;3.28;;;12.80;99.90;;;;;;5081803;28;20040;-67
2023/12/25 00:19:41;;;;;;;13.05;3.17;;;12.80;99.90;;;;;;5083043;28;20052;-69
2023/12/25 00:22:06;;;;;;;13.75;3.03;;;12.70;99.90;;;;;;5091249;28;20097;-68
2023/12/25 00:24:32;;;;;;;14.30;3.45;;;12.70;99.90;;;;;;5091444;28;20046;-68
2023/12/25 00:26:57;;;;;;;10.20;3.28;;;12.70;99.90;;;;;;5087904;28;20068;-68
2023/12/25 00:29:23;;;;;;;10.45;2.67;;;12.70;99.90;;;;;;5090494;28;20115;-67
2023/12/25 00:31:48;;;;;;;12.80;3.00;;;12.70;99.90;;;;;;5089366;28;20070;-70
2023/12/25 00:34:15;;;;;;;12.52;3.22;;;12.70;99.90;;;;;;5086712;28;20098;-68
2023/12/25 00:36:40;;;;;;;12.82;3.10;;;12.60;99.90;;;;;;5090866;28;20047;-67
2023/12/25 00:39:06;;;;;;;15.05;2.92;;;12.70;99.90;;;;;;5073101;28;20114;-69
2023/12/25 00:41:31;;;;;;;14.25;2.70;;;12.60;99.90;;;;;;5068434;28;20039;-68
2023/12/25 00:44:00;;;;;;;11.68;2.53;;;12.50;99.90;;;;;;5072362;28;20040;-68
2023/12/25 00:46:26;;;;;;;12.77;2.42;;;12.50;99.90;;;;;;5073085;28;20406;-68
2023/12/25 00:48:52;;;;;;;12.25;2.70;;;12.40;99.90;;;;;;5079733;28;20028;-68
2023/12/25 00:51:17;;;;;;;14.52;2.67;;;12.50;99.90;;;;;;5075200;28;20044;-67
2023/12/25 00:53:43;;;;;;;15.80;2.97;;;12.40;99.90;;;;;;5090674;28;20035;-69
2023/12/25 00:56:08;;;;;;;12.18;3.58;;;12.40;99.90;;;;;;5091150;28;20032;-69
2023/12/25 00:58:34;;;;;;;17.02;3.00;;;12.40;99.90;;;;;;5075828;28;20534;-68
2023/12/25 01:01:00;;;;;;;14.13;3.42;;;12.30;99.90;;;;;;5085175;28;20233;-67
2023/12/25 01:03:25;;;;;;;13.85;3.17;;;12.30;99.90;;;;;;5090193;28;20071;-68
2023/12/25 01:05:51;;;;;;;19.15;4.38;;;12.30;99.90;;;;;;5085437;28;20063;-68
2023/12/25 01:08:17;;;;;;;14.30;3.10;;;12.30;99.90;;;;;;5087243;28;20071;-68
2023/12/25 01:10:42;;;;;;;15.90;3.50;;;12.30;99.90;;;;;;5090655;28;20043;-70
2023/12/25 01:13:08;;;;;;;10.65;2.92;;;12.30;99.90;;;;;;5090829;28;20528;-67
2023/12/25 01:15:33;;;;;;;14.43;3.25;;;12.30;99.90;;;;;;5081655;28;20040;-68
2023/12/25 01:17:59;;;;;;;14.77;2.97;;;12.20;99.90;;;;;;5067214;28;20048;-67
2023/12/25 01:20:25;;;;;;;15.40;2.83;;;12.30;99.90;;;;;;5089814;28;20040;-68
2023/12/25 01:22:50;;;;;;;14.93;3.60;;;12.20;99.90;;;;;;5057600;28;20055;-66
2023/12/25 01:25:16;;;;;;;17.73;3.53;;;12.20;99.90;;;;;;5071746;28;20079;-67
2023/12/25 01:27:41;;;;;;;14.93;3.22;;;12.10;99.90;;;;;;5072396;28;20109;-69
2023/12/25 01:30:11;;;;;;;16.30;3.25;;;12.10;99.90;;;;;;5087603;28;20036;-67
2023/12/25 01:32:37;;;;;;;11.18;2.42;;;12.20;99.90;;;;;;5061948;28;20375;-67
2023/12/25 01:35:04;;;;;;;14.82;3.70;;;12.20;99.90;;;;;;5071948;28;20096;-68
2023/12/25 01:37:30;;;;;;;13.70;3.33;;;12.30;99.90;;;;;;5090628;28;20036;-68
2023/12/25 01:39:56;;;;;;;12.13;2.97;;;12.20;99.90;;;;;;5082507;28;20087;-68
2023/12/25 01:42:21;;;;;;;15.13;3.22;;;12.20;99.90;;;;;;5089530;28;20383;-67
2023/12/25 01:44:47;;;;;;;15.00;3.88;;;12.20;99.90;;;;;;5072090;28;20070;-69
2023/12/25 01:47:14;;;;;;;13.75;3.05;;;12.20;99.90;;;;;;5061886;28;20076;-68
2023/12/25 01:49:40;;;;;;;17.52;4.25;;;12.20;99.90;;;;;;5081309;28;20032;-68
2023/12/25 01:52:06;;;;;;;15.30;3.25;;;12.20;99.90;;;;;;5090287;28;20169;-67
2023/12/25 01:54:33;;;;;;;12.45;3.25;;;12.20;99.90;;;;;;5072267;28;20055;-67
2023/12/25 01:56:59;;;;;;;17.08;3.33;;;12.20;99.90;;;;;;5079063;28;20065;-69
2023/12/25 01:59:28;;;;;;;15.38;3.63;;;12.20;99.90;;;;;;5087642;28;20509;-68
2023/12/25 02:01:54;;;;;;;18.30;3.55;;;12.10;99.90;;;;;;5090060;28;20214;-67
2023/12/25 02:04:20;;;;;;;17.55;3.70;;;12.10;99.90;;;;;;5081667;28;20477;-68
2023/12/25 02:06:46;;;;;;;15.20;3.10;;;12.10;99.90;;;;;;5082452;28;20501;-68
2023/12/25 02:09:13;;;;;;;15.60;2.80;;;12.10;99.90;;;;;;5073443;28;20469;-68
2023/12/25 02:11:42;;;;;;;13.38;2.38;;;12.00;99.90;;;;;;5075707;28;20043;-68
2023/12/25 02:14:09;;;;;;;13.82;3.03;;;12.00;99.90;;;;;;5087267;28;20506;-67
2023/12/25 02:16:36;;;;;;;16.42;2.97;;;12.00;99.90;;;;;;5092776;28;20040;-67
2023/12/25 02:19:11;;;;;;;10.55;2.67;;;12.00;99.90;;;;;;5094134;28;20036;-68
2023/12/25 02:21:37;;;;;;;16.48;3.05;;;12.00;99.90;;;;;;5089770;28;20047;-67
2023/12/25 02:24:08;;;;;;;12.73;3.05;;;12.00;99.90;;;;;;5074390;28;20413;-68
2023/12/25 02:26:33;;;;;;;14.50;2.42;;;12.00;99.90;;;;;;5093670;28;20047;-69
2023/12/25 02:28:59;;;;;;;12.35;2.60;;;11.90;99.90;;;;;;5083745;28;20036;-69
2023/12/25 02:31:25;;;;;;;17.35;2.97;;;11.90;99.90;;;;;;5063922;28;20047;-68
2023/12/25 02:33:50;;;;;;;13.30;2.65;;;11.90;99.90;;;;;;5093105;28;20044;-67
2023/12/25 02:36:16;;;;;;;12.80;2.97;;;11.90;99.90;;;;;;5092139;28;20068;-67
2023/12/25 02:38:41;;;;;;;12.23;2.80;;;11.80;99.90;;;;;;5086695;28;20060;-68
2023/12/25 02:41:07;;;;;;;10.75;2.30;;;11.90;99.90;;;;;;5088818;28;20039;-67
2023/12/25 02:43:32;;;;;;;13.80;2.40;;;11.90;99.90;;;;;;5092943;28;20040;-68
2023/12/25 02:45:58;;;;;;;14.27;3.10;;;11.90;99.90;;;;;;5064993;28;20043;-68
2023/12/25 02:48:23;;;;;;;11.98;2.30;;;11.90;99.90;;;;;;5085328;28;20044;-67
2023/12/25 02:50:49;;;;;;;12.07;2.80;;;11.80;99.90;;;;;;5092898;28;20032;-67
2023/12/25 02:53:14;;;;;;;12.90;2.58;;;11.80;99.90;;;;;;5093396;28;20040;-67
2023/12/25 02:55:40;;;;;;;8.35;2.33;;;11.80;99.90;;;;;;5089341;28;20032;-67
2023/12/25 02:58:05;;;;;;;10.50;2.20;;;11.90;99.90;;;;;;5071438;28;20101;-68
2023/12/25 03:00:31;;;;;;;10.45;2.20;;;11.80;99.90;;;;;;5093011;28;20064;-68
2023/12/25 03:02:56;;;;;;;11.98;2.50;;;11.80;99.90;;;;;;5084412;28;20040;-67
2023/12/25 03:05:22;;;;;;;14.00;2.63;;;11.80;99.90;;;;;;5088975;28;20043;-67
2023/12/25 03:07:47;;;;;;;9.93;2.08;;;11.90;99.90;;;;;;5092724;28;20032;-68
2023/12/25 03:10:13;;;;;;;11.65;2.15;;;11.80;99.90;;;;;;5093169;28;20669;-69
2023/12/25 03:12:38;;;;;;;13.20;2.30;;;11.90;99.90;;;;;;5088422;28;20506;-68
2023/12/25 03:15:04;;;;;;;14.15;2.28;;;11.80;99.90;;;;;;5092342;28;20039;-69
2023/12/25 03:17:30;;;;;;;13.32;2.67;;;11.90;99.90;;;;;;5057913;28;20571;-68
2023/12/25 03:19:55;;;;;;;9.77;2.10;;;11.90;99.90;;;;;;5083273;28;20040;-68
2023/12/25 03:22:21;;;;;;;8.85;2.10;;;11.90;99.90;;;;;;5054812;28;20185;-67
2023/12/25 03:24:46;;;;;;;7.20;1.98;;;11.80;99.90;;;;;;5092499;28;20139;-67
2023/12/25 03:27:12;;;;;;;11.85;2.20;;;11.80;99.90;;;;;;5092811;28;20040;-68
2023/12/25 03:29:38;;;;;;;8.30;1.80;;;11.80;99.90;;;;;;5084718;28;20047;-67
2023/12/25 03:32:03;;;;;;;12.68;2.50;;;11.80;99.90;;;;;;5068999;28;20383;-67
2023/12/25 03:34:29;;;;;;;10.70;2.67;;;11.80;99.90;;;;;;5091967;28;20482;-68
2023/12/25 03:36:56;;;;;;;11.63;2.17;;;11.80;99.90;;;;;;5066329;28;20051;-67
2023/12/25 03:39:21;;;;;;;5.93;1.90;;;11.80;99.90;;;;;;5082667;28;20062;-68
2023/12/25 03:41:47;;;;;;;9.88;2.03;;;11.80;99.90;;;;;;5074552;28;20551;-67
2023/12/25 03:44:12;;;;;;;8.43;2.22;;;11.70;99.90;;;;;;5091981;28;20048;-68
2023/12/25 03:46:38;;;;;;;12.98;2.65;;;11.70;99.90;;;;;;5074654;28;20059;-67
2023/12/25 03:49:03;;;;;;;6.53;1.90;;;11.80;99.90;;;;;;5069142;28;20090;-67
2023/12/25 03:51:33;;;;;;;11.00;2.50;;;11.80;99.90;;;;;;5073939;28;20107;-68
2023/12/25 03:53:59;;;;;;;10.32;1.95;;;11.80;99.90;;;;;;5086975;28;20032;-67
2023/12/25 03:56:24;;;;;;;11.38;2.08;;;11.70;99.90;;;;;;5090166;28;20093;-67
2023/12/25 03:58:50;;;;;;;8.35;2.30;;;11.70;99.90;;;;;;5073876;28;20048;-68
2023/12/25 04:01:15;;;;;;;9.18;2.00;;;11.70;99.90;;;;;;5073978;28;20047;-67
2023/12/25 04:03:41;;;;;;;12.15;2.30;;;11.70;99.90;;;;;;5083661;28;20443;-67
2023/12/25 04:06:06;;;;;;;8.85;1.75;;;11.70;99.90;;;;;;5091713;28;20047;-69
2023/12/25 04:08:32;;;;;;;10.50;2.33;;;11.70;99.90;;;;;;5073651;28;20032;-68
2023/12/25 04:10:57;;;;;;;11.18;2.13;;;11.60;99.90;;;;;;5080709;28;20036;-68
2023/12/25 04:13:23;;;;;;;6.95;1.95;;;11.60;99.90;;;;;;5073019;28;20036;-67
2023/12/25 04:15:48;;;;;;;9.75;1.85;;;11.70;99.90;;;;;;5092007;28;20036;-67
2023/12/25 04:18:14;;;;;;;14.07;1.90;;;11.70;99.90;;;;;;5086826;28;20032;-68
2023/12/25 04:20:40;;;;;;;10.65;1.90;;;11.60;99.90;;;;;;5085986;28;20036;-68
2023/12/25 04:23:05;;;;;;;9.43;1.90;;;11.60;99.90;;;;;;5091426;28;20036;-69
2023/12/25 04:25:31;;;;;;;11.20;2.03;;;11.60;99.90;;;;;;5067979;28;20573;-67
2023/12/25 04:27:56;;;;;;;6.78;1.98;;;11.70;99.90;;;;;;5076280;28;20119;-68
2023/12/25 04:30:22;;;;;;;11.05;1.95;;;11.60;99.90;;;;;;5088872;28;20032;-67
2023/12/25 04:32:47;;;;;;;8.77;1.88;;;11.70;99.90;;;;;;5090445;28;20052;-68
2023/12/25 04:35:13;;;;;;;6.25;1.60;;;11.70;99.90;;;;;;5058518;28;20044;-68
2023/12/25 04:37:39;;;;;;;6.57;1.70;;;11.70;99.90;;;;;;5082521;28;20516;-66
2023/12/25 04:40:05;;;;;;;8.95;2.22;;;11.70;99.90;;;;;;5090909;28;20046;-68
2023/12/25 04:42:30;;;;;;;7.47;1.95;;;11.80;99.90;;;;;;5086670;28;20032;-67
2023/12/25 04:44:56;;;;;;;11.00;1.73;;;11.80;99.90;;;;;;5082074;28;20137;-67
2023/12/25 04:47:22;;;;;;;8.27;1.80;;;11.80;99.90;;;;;;5057200;28;20036;-69
2023/12/25 04:49:47;;;;;;;6.88;1.90;;;11.80;99.90;;;;;;5072802;28;20599;-67
2023/12/25 04:52:13;;;;;;;8.88;1.80;;;11.70;99.90;;;;;;5090970;28;20540;-67
2023/12/25 04:54:38;;;;;;;8.18;1.98;;;11.80;99.90;;;;;;5076715;28;20089;-68
2023/12/25 04:57:04;;;;;;;10.40;2.30;;;11.70;99.90;;;;;;5065805;28;20052;-67
2023/12/25 04:59:30;;;;;;;12.98;2.53;;;11.80;99.90;;;;;;5083277;28;20044;-69
2023/12/25 05:01:55;;;;;;;10.45;2.55;;;11.80;99.90;;;;;;5068349;28;20127;-67
2023/12/25 05:04:21;;;;;;;9.82;2.45;;;11.80;99.90;;;;;;5090252;28;20119;-68
2023/12/25 05:06:46;;;;;;;9.80;1.90;;;11.80;99.90;;;;;;5090878;28;20077;-67
2023/12/25 05:09:12;;;;;;;10.55;2.30;;;11.70;99.90;;;;;;5080665;28;20634;-67
2023/12/25 05:11:37;;;;;;;14.15;2.70;;;11.80;99.90;;;;;;5089591;28;20405;-68
2023/12/25 05:14:03;;;;;;;10.02;2.17;;;11.70;99.90;;;;;;5090656;28;20046;-67
2023/12/25 05:16:28;;;;;;;9.77;2.80;;;11.80;99.90;;;;;;5067606;28;20086;-67
2023/12/25 05:18:54;;;;;;;10.30;2.03;;;11.80;99.90;;;;;;5077318;28;20032;-67
2023/12/25 05:21:20;;;;;;;9.73;2.10;;;11.80;99.90;;;;;;5090230;28;20406;-69
2023/12/25 05:23:45;;;;;;;9.43;2.13;;;11.80;99.90;;;;;;5090198;28;20123;-67
2023/12/25 05:26:11;;;;;;;6.28;1.95;;;11.80;99.90;;;;;;5082431;28;20044;-68
2023/12/25 05:28:36;;;;;;;8.93;2.42;;;11.80;99.90;;;;;;5089912;28;20036;-68
2023/12/25 05:31:02;;;;;;;5.70;2.05;;;11.80;99.90;;;;;;5090684;28;20157;-68
2023/12/25 05:33:27;;;;;;;11.48;2.35;;;11.80;99.90;;;;;;5081413;28;20035;-68
2023/12/25 05:35:53;;;;;;;10.00;2.00;;;11.80;99.90;;;;;;5088821;28;20561;-69
2023/12/25 05:38:18;;;;;;;8.75;1.88;;;11.80;99.90;;;;;;5090511;28;20036;-67
2023/12/25 05:40:44;;;;;;;12.55;2.97;;;11.70;99.90;;;;;;5085227;28;20781;-68
2023/12/25 05:43:11;;;;;;;7.38;2.17;;;11.80;99.90;;;;;;5089525;28;20410;-68
2023/12/25 05:45:38;;;;;;;10.48;2.33;;;11.70;99.90;;;;;;5093857;28;20458;-67
2023/12/25 05:48:04;;;;;;;10.55;1.92;;;11.70;99.90;;;;;;5094725;28;20036;-68
2023/12/25 05:50:30;;;;;;;14.75;2.63;;;11.70;99.90;;;;;;5085207;28;20090;-68
2023/12/25 05:52:55;;;;;;;11.05;2.47;;;11.80;99.90;;;;;;5089410;28;20033;-67
2023/12/25 05:55:21;;;;;;;11.80;2.10;;;11.80;99.90;;;;;;5076056;28;20051;-68
2023/12/25 05:57:47;;;;;;;11.20;2.28;;;11.70;99.90;;;;;;5088647;28;20123;-68
2023/12/25 06:00:13;;;;;;;12.90;2.10;;;11.80;99.90;;;;;;5075490;28;20040;-67
2023/12/25 06:02:39;;;;;;;9.95;2.45;;;11.70;99.90;;;;;;5085851;28;20036;-68
2023/12/25 06:05:05;;;;;;;11.00;2.20;;;11.70;99.90;;;;;;5069339;28;20127;-67
2023/12/25 06:07:30;;;;;;;12.45;2.30;;;11.70;99.90;;;;;;5077836;28;20063;-68
2023/12/25 06:09:56;;;;;;;9.45;2.33;;;11.70;99.90;;;;;;5095630;28;20395;-67
2023/12/25 06:12:21;;;;;;;17.90;2.58;;;11.60;99.90;;;;;;5093803;28;20393;-68
2023/12/25 06:14:47;;;;;;;10.48;2.40;;;11.60;99.90;;;;;;5085894;28;20036;-67
2023/12/25 06:17:12;;;;;;;12.63;2.42;;;11.70;99.90;;;;;;5071960;28;20047;-67
2023/12/25 06:19:38;;;;;;;10.45;2.72;;;11.70;99.90;;;;;;5075253;28;20039;-67
2023/12/25 06:22:03;;;;;;;14.93;2.95;;;11.60;99.90;;;;;;5088152;28;20111;-67
2023/12/25 06:24:29;;;;;;;10.95;2.35;;;11.70;99.90;;;;;;5089710;28;20044;-67
2023/12/25 06:26:55;;;;;;;9.85;3.22;;;11.70;99.90;;;;;;5075278;28;20089;-67
2023/12/25 06:29:20;;;;;;;10.05;2.22;;;11.60;99.90;;;;;;5093883;28;20108;-69
2023/12/25 06:31:49;;;;;;;8.38;2.08;;;11.70;99.90;;;;;;5090486;28;20047;-68
2023/12/25 06:34:15;;;;;;;9.13;2.05;;;11.60;99.90;;;;;;5091889;28;20078;-68
2023/12/25 06:36:40;;;;;;;12.05;2.38;;;11.60;99.90;;;;;;5093774;28;20078;-68
2023/12/25 06:39:06;;;;;;;13.85;1.95;;;11.60;99.90;;;;;;5083883;28;20482;-67
2023/12/25 06:41:31;;;;;;;8.93;2.03;;;11.60;99.90;;;;;;5065133;28;20090;-68
2023/12/25 06:43:57;;;;;;;10.13;2.15;;;11.50;99.90;;;;;;5092800;28;20041;-68
2023/12/25 06:46:23;;;;;;;10.73;2.20;;;11.50;99.90;;;;;;5081836;28;20043;-68
2023/12/25 06:48:48;;;;;;;9.73;1.90;;;11.50;99.90;;;;;;5055670;28;20049;-68
2023/12/25 06:51:14;;;;;;;10.68;1.80;;;11.50;99.90;;;;;;5081481;28;20032;-68
2023/12/25 06:53:39;;;;;;;13.77;2.47;;;11.40;99.90;;;;;;5092720;28;20032;-69
2023/12/25 06:56:07;;;;;;;9.25;1.83;;;11.40;99.90;;;;;;5086132;28;20502;-66
2023/12/25 06:58:33;;;;;;;7.90;2.00;;;11.40;99.90;;;;;;5083226;28;20074;-67
2023/12/25 07:01:00;;;;;;;10.60;1.90;;;11.40;99.90;;;;;;5093002;28;20563;-67
2023/12/25 07:03:26;;;;;;;10.63;2.58;;;11.40;99.90;;;;;;5074171;28;20387;-67
2023/12/25 07:05:52;;;;;;;12.55;2.35;;;11.40;99.90;;;;;;5084276;28;20055;-67
2023/12/25 07:08:17;;;;;;;10.65;3.83;;;11.30;99.90;;;;;;5090354;28;20148;-67
2023/12/25 07:10:46;;;;;;;13.98;2.33;;;11.20;99.90;;;;;;5092731;28;20562;-67
2023/12/25 07:13:11;;;;;;;9.02;2.15;;;11.20;99.90;;;;;;5083572;28;20037;-69
2023/12/25 07:15:38;;;;;;;8.38;1.90;;;11.20;99.90;;;;;;5065725;28;20093;-67
2023/12/25 07:18:05;;;;;;;13.98;2.20;;;11.20;99.90;;;;;;5092565;28;20063;-69
2023/12/25 07:20:31;;;;;;;10.18;2.50;;;11.10;99.90;;;;;;5083731;28;20035;-70
2023/12/25 07:22:56;;;;;;;11.65;2.45;;;11.20;99.90;;;;;;5066894;28;20371;-67
2023/12/25 07:25:25;;;;;;;11.57;2.20;;;11.10;99.90;;;;;;5091110;28;20044;-69
2023/12/25 07:27:51;;;;;;;9.88;2.40;;;11.10;99.90;;;;;;5091977;28;20498;-68
2023/12/25 07:30:16;;;;;;;14.50;2.55;;;11.10;99.90;;;;;;5083608;28;20032;-67
2023/12/25 07:32:42;;;;;;;14.35;3.25;;;11.10;99.90;;;;;;5091118;28;20036;-68
2023/12/25 07:35:08;;;;;;;9.57;2.60;;;11.10;99.90;;;;;;5088842;28;20123;-67
2023/12/25 07:37:33;;;;;;;10.25;2.00;;;10.90;99.90;;;;;;5091766;28;20036;-68
2023/12/25 07:39:59;;;;;;;9.48;2.00;;;10.90;99.90;;;;;;5087007;28;20050;-68
2023/12/25 07:42:25;;;;;;;10.10;2.30;;;10.90;99.90;;;;;;5073418;28;20062;-66
2023/12/25 07:44:52;;;;;;;9.50;2.33;;;10.80;99.90;;;;;;5091274;28;20318;-68
2023/12/25 07:47:18;;;;;;;10.75;1.98;;;10.80;99.90;;;;;;5084504;28;20032;-68
2023/12/25 07:49:43;;;;;;;10.68;2.45;;;10.70;99.90;;;;;;5089678;28;20371;-67
2023/12/25 07:52:09;;;;;;;10.98;2.20;;;10.80;99.90;;;;;;5091170;28;20684;-68
2023/12/25 07:54:35;;;;;;;9.30;2.28;;;10.80;99.90;;;;;;5092123;28;20039;-68
2023/12/25 07:57:03;;;;;;;9.95;2.13;;;10.80;99.90;;;;;;5083703;28;20055;-68
2023/12/25 07:59:29;;;;;;;9.68;1.85;;;10.90;99.90;;;;;;5090447;28;20406;-66
2023/12/25 08:01:54;;;;;;;7.18;1.75;;;10.80;99.90;;;;;;5092638;28;20506;-67
2023/12/25 08:04:20;;;;;;;9.80;2.40;;;10.80;99.90;;;;;;5082792;28;20448;-68
2023/12/25 08:06:46;;;;;;;11.70;2.58;;;10.80;99.90;;;;;;5090809;28;20036;-67
2023/12/25 08:09:11;;;;;;;7.50;1.70;;;10.70;99.90;;;;;;5074823;28;20068;-67
2023/12/25 08:11:38;;;;;;;5.93;1.42;;;10.70;99.90;;;;;;5066902;28;20430;-68
2023/12/25 08:14:03;;;;;;;7.15;1.85;;;10.70;99.90;;;;;;5074103;28;20554;-68
2023/12/25 08:16:29;;;;;;;10.23;1.70;;;10.80;99.90;;;;;;5089544;28;20028;-68
2023/12/25 08:18:55;;;;;;;6.78;1.95;;;10.70;99.90;;;;;;5087777;28;20456;-67
2023/12/25 08:21:20;;;;;;;8.18;1.80;;;10.80;99.90;;;;;;5080187;28;20391;-67
2023/12/25 08:23:46;;;;;;;7.10;1.90;;;10.80;99.90;;;;;;5072608;28;20115;-69
2023/12/25 08:26:12;;;;;;;7.70;1.85;;;10.80;99.90;;;;;;5084175;28;20039;-67
2023/12/25 08:28:38;;;;;;;9.68;1.70;;;10.80;99.90;;;;;;5090514;28;20533;-67
2023/12/25 08:31:04;;;;;;;6.20;1.90;;;10.70;99.90;;;;;;5091047;28;20032;-67
2023/12/25 08:33:29;;;;;;;7.32;1.83;;;10.70;99.90;;;;;;5091017;28;20047;-66
2023/12/25 08:35:55;;;;;;;10.85;2.05;;;10.70;99.90;;;;;;5061787;28;20040;-68
2023/12/25 08:38:20;;;;;;;8.93;1.95;;;10.60;99.90;;;;;;5081890;28;20040;-68
2023/12/25 08:40:46;;;;;;;8.40;2.40;;;10.50;99.90;;;;;;5072763;28;20052;-67
2023/12/25 08:43:12;;;;;;;8.10;2.40;;;10.40;99.90;;;;;;5072780;28;20447;-68
2023/12/25 08:45:37;;;;;;;7.45;1.90;;;10.30;99.90;;;;;;5083907;28;20502;-68
2023/12/25 08:48:03;;;;;;;9.63;2.40;;;10.30;99.90;;;;;;5080149;28;20032;-68
2023/12/25 08:50:29;;;;;;;8.43;1.98;;;10.30;99.90;;;;;;5080273;28;20753;-67
2023/12/25 08:52:55;;;;;;;8.85;2.70;;;10.20;99.90;;;;;;5081384;28;20059;-67
2023/12/25 08:55:20;;;;;;;10.77;1.90;;;10.20;99.90;;;;;;5087756;28;20118;-67
2023/12/25 08:57:46;;;;;;;8.25;1.98;;;10.20;99.90;;;;;;5072496;28;20174;-68
2023/12/25 09:00:12;;;;;;;8.45;2.08;;;10.20;99.90;;;;;;5090881;28;20150;-68
2023/12/25 09:02:37;;;;;;;12.02;2.55;;;10.20;99.90;;;;;;5086765;28;20640;-69
2023/12/25 09:05:03;;;;;;;8.50;2.20;;;10.20;99.90;;;;;;5061351;28;20490;-68
2023/12/25 09:07:28;;;;;;;8.82;1.90;;;10.30;99.90;;;;;;5088169;28;20040;-66
2023/12/25 09:09:54;;;;;;;14.25;2.75;;;10.30;99.90;;;;;;5079796;28;20038;-68
2023/12/25 09:12:20;;;;;;;9.63;2.00;;;10.30;99.90;;;;;;5087340;28;20040;-67
2023/12/25 09:14:46;;;;;;;11.85;2.40;;;10.30;99.90;;;;;;5090568;28;20052;-68
2023/12/25 09:17:11;;;;;;;11.13;2.45;;;10.30;99.90;;;;;;5065358;28;20071;-70
2023/12/25 09:19:37;;;;;;;9.07;2.00;;;10.40;99.90;;;;;;5075484;28;20479;-68
2023/12/25 09:22:03;;;;;;;11.40;2.35;;;10.40;99.90;;;;;;5090688;28;20040;-67
2023/12/25 09:24:29;;;;;;;17.85;2.38;;;10.40;99.90;;;;;;5069560;28;20494;-67
2023/12/25 09:26:55;;;;;;;12.60;2.42;;;10.40;99.90;;;;;;5080756;28;20063;-67
2023/12/25 09:29:20;;;;;;;9.27;2.03;;;10.40;99.90;;;;;;5089840;28;20111;-68
2023/12/25 09:31:46;;;;;;;10.70;2.03;;;10.50;99.90;;;;;;5062823;28;20044;-68
2023/12/25 09:34:12;;;;;;;10.57;2.33;;;10.50;99.90;;;;;;5088780;28;20042;-66
2023/12/25 09:36:37;;;;;;;8.63;2.20;;;10.60;99.90;;;;;;5090108;28;20632;-67
2023/12/25 09:39:03;;;;;;;8.13;2.13;;;10.60;99.90;;;;;;5072006;28;20044;-67
2023/12/25 09:41:32;;;;;;;8.77;2.55;;;10.60;99.90;;;;;;5085249;28;20044;-68
2023/12/25 09:44:00;;;;;;;13.32;2.47;;;10.60;99.90;;;;;;5083563;28;20116;-68
2023/12/25 09:46:27;;;;;;;11.30;2.20;;;10.70;99.90;;;;;;5089653;28;20103;-68
2023/12/25 09:48:54;;;;;;;15.40;2.83;;;10.70;99.90;;;;;;5090207;28;20105;-68
2023/12/25 09:51:22;;;;;;;13.40;2.08;;;10.60;99.90;;;;;;5089038;28;20064;-68
2023/12/25 09:53:47;;;;;;;13.30;2.28;;;10.60;99.90;;;;;;5078544;28;20517;-68
2023/12/25 09:56:16;;;;;;;12.45;2.60;;;10.60;99.90;;;;;;5089615;28;20036;-67
2023/12/25 09:58:43;;;;;;;8.13;2.15;;;10.70;99.90;;;;;;5068402;28;20040;-67
2023/12/25 10:01:10;;;;;;;13.20;2.58;;;10.70;99.90;;;;;;5073186;28;20040;-67
2023/12/25 10:03:37;;;;;;;12.27;2.35;;;10.80;99.90;;;;;;5079125;28;20044;-66
2023/12/25 10:06:03;;;;;;;8.88;2.20;;;10.90;99.90;;;;;;5084721;28;20043;-68
2023/12/25 10:08:30;;;;;;;9.43;2.35;;;11.00;99.90;;;;;;5067401;28;20402;-66
2023/12/25 10:10:55;;;;;;;6.55;1.75;;;11.00;99.90;;;;;;5083926;28;20444;-68
2023/12/25 10:13:24;;;;;;;16.85;2.47;;;11.10;99.90;;;;;;5089281;28;20040;-67
2023/12/25 10:15:51;;;;;;;14.35;2.45;;;11.10;99.90;;;;;;5058983;28;20205;-67
2023/12/25 10:18:18;;;;;;;9.02;2.00;;;11.10;99.90;;;;;;5060869;28;20550;-67
2023/12/25 10:20:56;;;;;;;8.30;2.17;;;11.10;99.90;;;;;;5071521;28;20051;-68
2023/12/25 10:23:29;;;;;;;10.90;2.22;;;11.10;99.90;;;;;;5089995;28;20509;-68
2023/12/25 10:25:56;;;;;;;8.23;1.90;;;11.10;99.90;;;;;;5084265;28;20044;-67
2023/12/25 10:28:26;;;;;;;8.95;2.40;;;11.20;99.90;;;;;;5063906;28;20125;-67
2023/12/25 10:31:07;;;;;;;9.10;2.10;;;11.20;99.90;;;;;;5067270;28;20043;-68
2023/12/25 10:33:35;;;;;;;;;;;11.20;99.90;;;;;;5072933;28;20113;-67
2023/12/25 10:36:05;;;;;;;9.63;1.90;;;11.20;99.90;;;;;;5080153;28;20455;-67
2023/12/25 10:38:42;;;;;;;9.48;2.00;;;11.30;99.90;;;;;;5074998;28;20051;-68
2023/12/25 10:41:28;;;;;;;8.50;2.13;;;11.20;99.90;;;;;;5093987;28;20047;-68
2023/12/25 10:43:55;;;;;;;7.85;2.22;;;11.20;99.90;;;;;;5062445;28;20547;-69
2023/12/25 10:46:26;;;;;;;9.93;2.40;;;11.20;99.90;;;;;;5074805;28;20089;-67
2023/12/25 10:48:53;;;;;;;17.67;2.03;;;11.20;99.90;;;;;;5091672;28;20036;-67
2023/12/25 10:51:40;;;;;;;8.77;2.28;;;11.20;99.90;;;;;;5084625;28;20446;-67
2023/12/25 10:54:08;;;;;;;10.00;1.88;;;11.20;99.90;;;;;;5092631;28;20123;-66
2023/12/25 10:56:35;;;;;;;7.57;2.10;;;11.20;99.90;;;;;;5074837;28;20489;-67
2023/12/25 10:59:25;;;;;;;9.00;2.33;;;11.10;99.90;;;;;;5074110;28;20039;-68
2023/12/25 11:01:53;;;;;;;6.95;2.00;;;11.10;99.90;;;;;;5086333;28;20050;-68
2023/12/25 11:04:20;;;;;;;12.38;2.67;;;11.20;99.90;;;;;;5092705;28;20040;-68
2023/12/25 11:06:46;;;;;;;10.65;2.30;;;11.20;99.90;;;;;;5085465;28;20032;-68
2023/12/25 11:09:14;;;;;;;9.57;2.08;;;11.20;99.90;;;;;;5083934;28;20114;-67
2023/12/25 11:11:41;;;;;;;8.55;1.92;;;11.20;99.90;;;;;;5084635;28;20044;-68
2023/12/25 11:14:07;;;;;;;10.63;2.25;;;11.20;99.90;;;;;;5073919;28;20048;-70
2023/12/25 11:16:36;;;;;;;9.38;2.17;;;11.30;99.90;;;;;;5082787;28;20225;-68
2023/12/25 11:19:02;;;;;;;10.85;2.35;;;11.30;99.90;;;;;;5069049;28;20036;-67
2023/12/25 11:21:30;;;;;;;12.98;2.83;;;11.20;99.90;;;;;;5092469;28;20032;-67
2023/12/25 11:23:58;;;;;;;11.10;3.08;;;11.20;99.90;;;;;;5075734;28;20032;-67
2023/12/25 11:26:24;;;;;;;7.60;1.70;;;11.20;99.90;;;;;;5070880;28;20105;-68
2023/12/25 11:29:05;;;;;;;9.95;2.42;;;11.20;99.90;;;;;;5092403;28;20632;-68
2023/12/25 11:31:40;;;;;;;;;;;11.20;99.90;;;;;;5066925;28;20032;-67
2023/12/25 11:34:22;;;;;;;11.57;2.17;;;11.20;99.90;;;;;;5062570;28;19916;-68
2023/12/25 11:36:56;;;;;;;9.45;2.20;;;11.20;99.90;;;;;;5085217;28;20082;-68
2023/12/25 11:39:23;;;;;;;8.23;2.03;;;11.20;99.90;;;;;;5070739;28;20622;-66
2023/12/25 11:41:49;;;;;;;9.27;2.20;;;11.20;99.90;;;;;;5082629;28;20512;-66
2023/12/25 11:44:17;;;;;;;14.43;2.78;;;11.20;99.90;;;;;;5091619;28;20044;-68
2023/12/25 11:46:49;;;;;;;6.85;1.83;;;11.20;99.90;;;;;;5074096;28;20051;-67
2023/12/25 11:49:15;;;;;;;9.20;1.90;;;11.20;99.90;;;;;;5080218;28;20046;-68
2023/12/25 11:51:48;;;;;;;6.28;1.98;;;11.20;99.90;;;;;;5091427;28;20119;-66
2023/12/25 11:54:13;;;;;;;7.95;1.83;;;11.20;99.90;;;;;;5091704;28;20534;-68
2023/12/25 11:56:39;;;;;;;8.68;1.98;;;11.20;99.90;;;;;;5078267;28;20068;-68
2023/12/25 11:59:05;;;;;;;14.05;2.20;;;11.20;99.90;;;;;;5083654;28;20445;-68
2023/12/25 12:01:31;;;;;;;12.13;2.42;;;11.20;99.90;;;;;;5091332;28;20094;-68
2023/12/25 12:03:57;;;;;;;14.27;2.10;;;11.20;99.90;;;;;;5088662;28;20487;-67
2023/12/25 12:06:22;;;;;;;11.15;2.33;;;11.20;99.90;;;;;;5080636;28;20032;-67
2023/12/25 12:08:48;;;;;;;11.00;2.10;;;11.10;99.90;;;;;;5091662;28;20436;-66
2023/12/25 12:11:15;;;;;;;10.43;2.40;;;11.10;99.90;;;;;;5091619;28;20082;-68
2023/12/25 12:13:41;;;;;;;9.70;2.17;;;11.10;99.90;;;;;;5080029;28;20032;-67
2023/12/25 12:16:07;;;;;;;7.63;2.40;;;11.10;99.90;;;;;;5085548;28;20063;-68
2023/12/25 12:18:34;;;;;;;11.40;2.55;;;11.10;99.90;;;;;;5090775;28;20414;-68
2023/12/25 12:21:00;;;;;;;9.30;2.45;;;11.10;99.90;;;;;;5091139;28;20039;-68
2023/12/25 12:23:31;;;;;;;8.50;2.42;;;11.10;99.90;;;;;;5080112;28;20032;-64
2023/12/25 12:26:00;;;;;;;11.30;2.50;;;11.10;99.90;;;;;;5081981;28;20052;-66
2023/12/25 12:28:26;;;;;;;7.88;2.92;;;11.10;99.90;;;;;;5088629;28;20158;-67
2023/12/25 12:30:52;;;;;;;11.20;3.22;;;11.10;99.90;;;;;;5061662;28;20575;-67
2023/12/25 12:33:18;;;;;;;10.52;3.30;;;11.20;99.90;;;;;;5090000;28;20068;-68
2023/12/25 12:35:46;;;;;;;12.23;2.75;;;11.20;99.90;;;;;;5091327;28;20040;-67